• Join FlightAware (Why Join?)
  • Login
  • US Flag 
04:16AM EDT


 

Airport Tracker/Info


-or-


 

Live Flight TrackerFlight Track Log ✈ TAM3714 ✈ 05-Aug-2013 ✈ SBSP / CGH - SBBR / BSB

Flight Track Log - Related Links

Times and Time Zones

All times are in EDT time to prevent confusion due to time zone crossing. See the TAM3714 flight status page for this flight to view local times or setup timezone preferences in your user account.

Time Position Orientation Groundspeed Altitude Reporting Facility
EDT Latitude Longitude Course Direction KTS MPH feet Rate Location/Type
08:03PM -23.6240 -46.6600 84° East  Level FlightAware
08:35PM -23.4506 -46.6893 351° North  Level Estimated
08:36PM -23.3549 -46.7055 351° North  Level Estimated
08:37PM -23.2591 -46.7217 351° North  Level Estimated
08:37PM -23.6220 -46.6600 351° North  Level FlightAware
08:39PM -23.6210 -46.6610 360° North 600 Level FlightAware
08:41PM -23.6220 -46.6600 351° North 1,200 Level FlightAware
08:42PM -23.4087 -46.6970 351° North  Level Estimated
08:42PM -23.6400 -46.6470 147° Southeast 152 175 3,000  Level FlightAware
08:42PM -23.6440 -46.6450 155° Southeast 154 177 3,200 1,320 Climbing FlightAware
08:42PM -23.6490 -46.6360 121° Southeast 153 176 3,400 720 Climbing FlightAware
08:42PM -23.6490 -46.6340 90° East 154 177 3,400 420 Level FlightAware
08:43PM -23.6420 -46.6180 64° Northeast 180 207 3,600 720 Climbing FlightAware
08:43PM -23.6350 -46.6130 33° Northeast 192 221 3,800 1,560 Climbing FlightAware
08:43PM -23.6220 -46.6040 32° Northeast 205 236 4,300 1,680 Climbing FlightAware
08:43PM -23.6160 -46.5980 42° Northeast 210 242 4,500 1,500 Climbing FlightAware
08:43PM -23.6130 -46.5940 51° Northeast 215 247 4,600 2,220 Climbing FlightAware
08:43PM -23.6110 -46.5900 61° Northeast 219 252 4,800 1,140 Climbing FlightAware
08:44PM -23.6060 -46.5690 75° East 224 258 5,400 1,440 Climbing FlightAware
08:44PM -23.5970 -46.5190 79° East 279 321 6,300 2,220 Climbing FlightAware
08:45PM -23.5910 -46.4910 77° East 289 333 7,100 2,820 Climbing FlightAware
08:45PM -23.5830 -46.4620 73° East 284 327 8,200 3,300 Climbing FlightAware
08:45PM -23.5760 -46.4490 60° Northeast 278 320 8,700 3,600 Climbing FlightAware
08:45PM -23.5660 -46.4400 40° Northeast 274 315 9,400 3,600 Climbing FlightAware
08:45PM -23.5490 -46.4340 18° North 264 304 10,200 2,340 Climbing FlightAware
08:46PM -23.5180 -46.4380 353° North 277 319 11,000 1,380 Climbing FlightAware
08:46PM -23.4700 -46.4500 347° North 311 358 11,600 1,440 Climbing FlightAware
08:47PM -23.4160 -46.4620 348° North 342 394 12,700 2,160 Climbing FlightAware
08:48PM -23.3520 -46.4770 348° North 343 395 14,300 2,220 Climbing FlightAware
08:48PM -23.3050 -46.4880 348° North 361 415 15,300 1,920 Climbing FlightAware
08:49PM -23.2470 -46.5020 347° North 363 418 16,400 2,100 Climbing FlightAware
08:49PM -23.1870 -46.5160 348° North 363 418 17,800 2,220 Climbing FlightAware
08:50PM -23.1280 -46.5290 349° North 375 432 19,000 1,920 Climbing FlightAware
08:51PM -23.0610 -46.5450 348° North 381 438 20,200 1,800 Climbing FlightAware
08:51PM -23.0080 -46.5570 348° North 378 435 21,100 1,860 Climbing FlightAware
08:52PM -22.9450 -46.5710 348° North 390 449 22,200 1,440 Climbing FlightAware
08:52PM -22.8820 -46.5820 351° North 405 466 22,800 1,260 Climbing FlightAware
08:53PM -22.8160 -46.5930 351° North 403 464 23,700 1,560 Climbing FlightAware
08:53PM -22.7490 -46.6040 351° North 404 465 24,700 1,740 Climbing FlightAware
08:54PM -22.6830 -46.6150 351° North 403 464 25,800 1,260 Climbing FlightAware
08:55PM -22.6100 -46.6280 351° North 410 472 26,300 840 Climbing FlightAware
08:55PM -22.5400 -46.6390 352° North 425 489 26,900 960 Climbing FlightAware
08:56PM -22.4810 -46.6480 352° North 422 486 27,400 960 Climbing FlightAware
08:56PM -22.4130 -46.6590 351° North 436 502 28,000 1,020 Climbing FlightAware
08:57PM -22.3390 -46.6710 351° North 441 507 28,600 1,080 Climbing FlightAware
08:58PM -22.2680 -46.6820 352° North 442 509 29,300 1,140 Climbing FlightAware
08:58PM -22.1980 -46.6920 352° North 435 501 30,000 1,260 Climbing FlightAware
08:59PM -22.1260 -46.7040 351° North 441 507 30,800 1,260 Climbing FlightAware
08:59PM -22.0540 -46.7150 352° North 440 506 31,500 1,140 Climbing FlightAware
08:59PM -22.0440 -46.7160 355° North 440 506 31,600 120 Climbing FlightAware
09:01PM -21.9840 -46.7250 352° North 441 507 31,700 960 Climbing FlightAware
09:01PM -21.8280 -46.7480 352° North 446 513 33,300 2,280 Climbing FlightAware
09:02PM -21.7410 -46.7610 352° North 433 498 34,500 1,260 Climbing FlightAware
09:02PM -21.6690 -46.7720 352° North 432 497 35,000 780 Climbing FlightAware
09:03PM -21.6070 -46.7810 352° North 433 498 35,400 780 Climbing FlightAware
09:03PM -21.5820 -46.7850 352° North 433 498 35,600 780 Climbing FlightAware
09:04PM -21.4780 -46.8000 352° North 432 497 36,300 780 Climbing FlightAware
09:05PM -21.4100 -46.8100 352° North 430 495 36,800 540 Climbing FlightAware
09:05PM -21.3380 -46.8210 352° North 429 494 37,000 120 Climbing FlightAware
09:06PM -21.2700 -46.8520 337° Northwest 411 473 37,000  Level FlightAware
09:06PM -21.2150 -46.8830 332° Northwest 412 474 37,000  Level FlightAware
09:07PM -21.1470 -46.9180 334° Northwest 413 475 37,000  Level FlightAware
09:08PM -21.0910 -46.9470 334° Northwest 413 475 37,000  Level FlightAware
09:08PM -21.0300 -46.9800 333° Northwest 413 475 37,000  Level FlightAware
09:09PM -20.9660 -47.0130 334° Northwest 413 475 37,000  Level FlightAware
09:09PM -20.9050 -47.0450 334° Northwest 414 476 37,000  Level FlightAware
09:10PM -20.8510 -47.0740 333° Northwest 414 476 37,000  Level FlightAware
09:11PM -20.7930 -47.1040 334° Northwest 415 478 37,000  Level FlightAware
09:11PM -20.7310 -47.1360 334° Northwest 415 478 37,000  Level FlightAware
09:12PM -20.6620 -47.1730 333° Northwest 415 478 37,000  Level FlightAware
09:12PM -20.6100 -47.2000 334° Northwest 415 478 37,000  Level FlightAware
09:13PM -20.5450 -47.2340 334° Northwest 415 478 37,000  Level FlightAware
09:14PM -20.4830 -47.2660 334° Northwest 415 478 37,000  Level FlightAware
09:14PM -20.4200 -47.2990 334° Northwest 417 480 37,000  Level FlightAware
09:15PM -20.3650 -47.3280 334° Northwest 417 480 37,000  Level FlightAware
09:15PM -20.3020 -47.3610 334° Northwest 420 483 37,000  Level FlightAware
09:16PM -20.2390 -47.3930 335° Northwest 421 484 37,000  Level FlightAware
09:16PM -20.1750 -47.4260 334° Northwest 421 484 37,000  Level FlightAware
09:17PM -20.1230 -47.4530 334° Northwest 422 486 37,000  Level FlightAware
09:18PM -20.0580 -47.4870 334° Northwest 422 486 37,000  Level FlightAware
09:18PM -20.0010 -47.5170 334° Northwest 423 487 37,000  Level FlightAware
09:19PM -19.9560 -47.5400 334° Northwest 423 487 37,000  Level FlightAware
09:19PM -19.8900 -47.5740 334° Northwest 423 487 37,000  Level FlightAware
09:19PM -19.8620 -47.5880 335° Northwest 423 487 37,000  Level FlightAware
09:20PM -19.7850 -47.6280 334° Northwest 424 488 37,000  Level FlightAware
09:21PM -19.7090 -47.6670 334° Northwest 423 487 37,000  Level FlightAware
09:21PM -19.6510 -47.6970 334° Northwest 423 487 37,000  Level FlightAware
09:22PM -19.6080 -47.7200 333° Northwest 422 486 37,000  Level FlightAware
09:23PM -19.5130 -47.7690 334° Northwest 423 487 37,000  Level FlightAware
09:23PM -19.4490 -47.8020 334° Northwest 424 488 37,000  Level FlightAware
09:24PM -19.3880 -47.8330 334° Northwest 426 490 37,000  Level FlightAware
09:25PM -19.3240 -47.8660 334° Northwest 426 490 37,000  Level FlightAware
09:25PM -19.2650 -47.8960 334° Northwest 427 491 37,000  Level FlightAware
09:26PM -19.1990 -47.9300 334° Northwest 424 488 37,000  Level FlightAware
09:26PM -19.1440 -47.9580 334° Northwest 424 488 37,000  Level FlightAware
09:27PM -19.0800 -47.9910 334° Northwest 424 488 37,000  Level FlightAware
09:27PM -19.0170 -48.0230 334° Northwest 427 491 37,000  Level FlightAware
09:28PM -18.9500 -48.0570 334° Northwest 428 493 37,000  Level FlightAware
09:29PM -18.8890 -48.0880 334° Northwest 428 493 37,000  Level FlightAware
09:29PM -18.8300 -48.1180 334° Northwest 428 493 37,000  Level FlightAware
09:30PM -18.7660 -48.1510 334° Northwest 428 493 37,000  Level FlightAware
09:30PM -18.7020 -48.1830 335° Northwest 428 493 37,000  Level FlightAware
09:31PM -18.6370 -48.2170 334° Northwest 428 493 37,000  Level FlightAware
09:31PM -18.5810 -48.2430 336° Northwest 434 499 37,000  Level FlightAware
09:32PM -18.4990 -48.2560 351° North 444 511 37,000  Level FlightAware
09:33PM -18.4340 -48.2630 354° North 442 509 37,000  Level FlightAware
09:33PM -18.3610 -48.2710 354° North 440 506 37,000  Level FlightAware
09:34PM -18.2990 -48.2770 355° North 439 505 37,000  Level FlightAware
09:34PM -18.2160 -48.2860 354° North 438 504 37,000  Level FlightAware
09:35PM -18.1160 -48.2970 354° North 438 504 37,000  Level FlightAware
09:36PM -18.0310 -48.3060 354° North 440 506 37,000  Level FlightAware
09:37PM -17.9620 -48.3140 354° North 440 506 37,000  Level FlightAware
09:37PM -17.9000 -48.3210 354° North 440 506 37,000  Level FlightAware
09:38PM -17.8050 -48.3300 355° North 443 510 37,000  Level FlightAware
09:38PM -17.7340 -48.3380 354° North 444 511 37,000  Level FlightAware
09:39PM -17.6580 -48.3460 354° North 444 511 37,000 -240 Level FlightAware
09:39PM -17.6080 -48.3510 355° North 440 506 36,800 -1,560 Descending FlightAware
09:40PM -17.5260 -48.3600 354° North 429 494 35,300 -2,400 Descending FlightAware
09:41PM -17.4490 -48.3690 354° North 433 498 33,600 -2,880 Descending FlightAware
09:41PM -17.3840 -48.3760 354° North 438 504 32,000 -3,000 Descending FlightAware
09:42PM -17.3530 -48.3790 355° North 441 507 31,200 -2,880 Descending FlightAware
09:42PM -17.2450 -48.3900 354° North 444 511 28,800 -1,800 Descending FlightAware
09:43PM -17.1800 -48.3980 353° North 444 511 28,500 -2,640 Descending FlightAware
09:44PM -17.0900 -48.4070 355° North 441 507 25,500 -2,820 Descending FlightAware
09:44PM -17.0220 -48.4140 354° North 440 506 25,000 -2,580 Descending FlightAware
09:45PM -16.9560 -48.4210 354° North 431 496 22,600 -3,300 Descending FlightAware
09:45PM -16.8900 -48.4280 354° North 417 480 21,400 -2,220 Descending FlightAware
09:46PM -16.8200 -48.4350 355° North 399 459 20,100 -1,980 Descending FlightAware
09:47PM -16.7500 -48.4300 North 394 453 19,000 -1,800 Descending FlightAware
09:47PM -16.6880 -48.4070 20° North 391 450 17,900 -1,860 Descending FlightAware
09:48PM -16.6170 -48.3800 20° North 424 488 16,700 -1,920 Descending FlightAware
09:48PM -16.5620 -48.3590 20° North 417 480 15,700 -2,160 Descending FlightAware
09:49PM -16.4800 -48.3280 20° North 400 460 14,000 -2,220 Descending FlightAware
09:50PM -16.4200 -48.3060 19° North 388 447 12,800 -1,980 Descending FlightAware
09:50PM -16.3610 -48.2830 21° North 382 440 11,700 -1,500 Descending FlightAware
09:51PM -16.2970 -48.2590 20° North 350 403 10,900 -1,020 Descending FlightAware
09:52PM -16.2430 -48.2390 20° North 320 368 10,400 -840 Descending FlightAware
09:52PM -16.2010 -48.2220 21° North 300 345 10,000 -1,080 Descending FlightAware
09:52PM -16.1740 -48.2120 20° North 292 336 9,500 -1,500 Descending FlightAware
09:53PM -16.1430 -48.2010 19° North 286 329 8,900 -1,680 Descending FlightAware
09:53PM -16.1180 -48.1910 21° North 284 327 8,300 -1,800 Descending FlightAware
09:54PM -16.0920 -48.1810 20° North 284 327 7,700 -1,620 Descending FlightAware
09:54PM -16.0610 -48.1700 19° North 279 321 7,100 -1,080 Descending FlightAware
09:54PM -16.0370 -48.1610 20° North 276 318 6,900 -600 Descending FlightAware
09:55PM -16.0130 -48.1520 20° North 277 319 6,700 -360 Descending FlightAware
09:55PM -15.9890 -48.1430 20° North 276 318 6,700 -300 Level FlightAware
09:55PM -15.9650 -48.1350 18° North 265 305 6,500 -480 Descending FlightAware
09:56PM -15.9430 -48.1280 17° North 250 288 6,400 -600 Descending FlightAware
09:56PM -15.9200 -48.1210 16° North 238 274 6,100 -540 Descending FlightAware
09:56PM -15.8980 -48.1090 28° Northeast 207 238 6,000 -240 Descending FlightAware
09:56PM -15.8960 -48.1060 55° Northeast 202 232 6,000  Level FlightAware
09:57PM -15.8930 -48.0970 71° East 190 219 6,000 -660 Level FlightAware
09:57PM -15.8900 -48.0790 80° East 182 209 5,700 -900 Descending FlightAware
09:57PM -15.8890 -48.0620 87° East 174 200 5,400 -900 Descending FlightAware
09:58PM -15.8870 -48.0460 83° East 158 182 5,100 -780 Descending FlightAware
09:58PM -15.8870 -48.0310 90° East 146 168 4,900 -780 Descending FlightAware
09:58PM -15.8860 -48.0180 85° East 140 161 4,600 -840 Descending FlightAware
09:59PM -15.8850 -48.0010 87° East 138 159 4,300 -720 Descending FlightAware
09:59PM -15.8840 -47.9880 85° East 138 159 4,100 -600 Descending FlightAware
09:59PM -15.8830 -47.9750 85° East 138 159 3,900 -720 Descending FlightAware
09:59PM -15.8830 -47.9720 90° East 138 159 3,800 -420 Descending FlightAware
10:01PM -15.8790 -47.9210 85° East 140 161 3,200 -300 Descending FlightAware
10:02PM -15.8780 -47.9050 86° East 140 161 3,200  Level FlightAware
10:02PM -15.8780 -47.9160 270° West 140 161 3,200  Level FlightAware
10:02PM -15.8770 -47.9000 86° East 140 161 3,200  Level FlightAware
10:03PM -15.8750 -47.9160 277° West 140 161 3,200  Level FlightAware
10:03PM -15.8740 -47.9010 86° East 140 161 3,200  Level FlightAware
10:06PM -15.8626 -47.9127 315° West  Level Estimated